createdAt,value
2019-05-07T00:02:32.032Z,32.10
2019-05-07T00:05:14.145Z,31.90
2019-05-07T00:10:17.520Z,32.00
2019-05-07T00:12:46.663Z,31.90
2019-05-07T00:15:18.475Z,32.50
2019-05-07T00:17:43.383Z,32.00
2019-05-07T00:20:13.813Z,32.00
2019-05-07T00:22:41.927Z,32.00
2019-05-07T00:25:15.242Z,32.00
2019-05-07T00:27:42.781Z,32.00
2019-05-07T00:30:12.544Z,32.00
2019-05-07T00:32:39.069Z,32.10
2019-05-07T00:35:09.387Z,32.00
2019-05-07T00:37:36.780Z,32.10
2019-05-07T00:40:04.162Z,32.00
2019-05-07T00:42:34.582Z,32.00
2019-05-07T00:45:14.287Z,32.00
2019-05-07T00:47:32.824Z,32.00
2019-05-07T00:49:59.982Z,32.00
2019-05-07T00:52:33.628Z,32.00
2019-05-07T00:57:37.076Z,31.90
2019-05-07T01:00:30.033Z,32.00
2019-05-07T01:02:57.136Z,32.00
2019-05-07T01:05:24.307Z,32.00
2019-05-07T01:07:52.883Z,32.00
2019-05-07T01:10:22.268Z,32.00
2019-05-07T01:12:53.179Z,32.00
2019-05-07T01:15:31.039Z,32.00
2019-05-07T01:17:59.375Z,31.90
2019-05-07T01:20:33.057Z,31.90
2019-05-07T01:23:02.551Z,31.90
2019-05-07T01:25:32.891Z,31.90
2019-05-07T01:28:16.939Z,32.00
2019-05-07T01:30:45.672Z,31.90
2019-05-07T01:33:17.458Z,31.90
2019-05-07T01:38:35.369Z,31.90
2019-05-07T01:41:02.908Z,32.50
2019-05-07T01:43:32.105Z,31.90
2019-05-07T01:46:03.208Z,31.80
2019-05-07T01:48:32.349Z,31.90
2019-05-07T01:51:03.455Z,31.90
2019-05-07T01:53:32.460Z,31.80
2019-05-07T01:55:59.978Z,31.80
2019-05-07T01:58:33.245Z,32.00
2019-05-07T02:01:02.688Z,31.90
2019-05-07T02:03:38.139Z,31.90
2019-05-07T02:06:06.942Z,31.80
2019-05-07T02:08:53.018Z,31.70
2019-05-07T02:11:29.216Z,31.90
2019-05-07T02:13:56.301Z,31.80
2019-05-07T02:16:23.720Z,31.80
2019-05-07T02:18:52.779Z,31.80
2019-05-07T02:21:21.946Z,31.80
2019-05-07T02:24:03.322Z,31.80
2019-05-07T02:26:32.138Z,31.80
2019-05-07T02:28:59.604Z,31.80
2019-05-07T02:31:26.866Z,31.80
2019-05-07T02:33:54.382Z,31.80
2019-05-07T02:36:23.794Z,31.70
2019-05-07T02:38:53.125Z,31.80
2019-05-07T02:41:19.689Z,31.70
2019-05-07T02:43:46.905Z,31.80
2019-05-07T02:46:26.046Z,31.70
2019-05-07T02:48:44.621Z,31.80
2019-05-07T02:51:13.187Z,31.70
2019-05-07T02:53:43.113Z,31.70
2019-05-07T02:56:12.948Z,31.70
2019-05-07T02:58:43.486Z,31.70
2019-05-07T03:01:14.397Z,31.70
2019-05-07T03:03:44.699Z,31.60
2019-05-07T03:06:26.970Z,31.70
2019-05-07T03:08:56.879Z,31.70
2019-05-07T03:11:24.263Z,31.60
2019-05-07T03:13:53.667Z,31.70
2019-05-07T03:16:38.848Z,31.60
2019-05-07T03:19:09.166Z,31.60
2019-05-07T03:21:36.589Z,31.60
2019-05-07T03:24:05.447Z,31.60
2019-05-07T03:26:36.988Z,31.60
2019-05-07T03:29:04.127Z,31.60
2019-05-07T03:31:36.442Z,31.60
2019-05-07T03:34:16.159Z,31.60
2019-05-07T03:36:46.562Z,31.60
2019-05-07T03:39:14.502Z,31.60
2019-05-07T03:44:44.645Z,31.50
2019-05-07T03:47:13.985Z,31.50
2019-05-07T03:49:43.008Z,31.50
2019-05-07T03:52:13.547Z,31.50
2019-05-07T03:54:38.612Z,31.40
2019-05-07T03:57:11.098Z,31.50
2019-05-07T03:59:37.442Z,31.40
2019-05-07T04:02:04.661Z,31.30
2019-05-07T04:04:33.230Z,31.30
2019-05-07T04:07:03.329Z,31.30
2019-05-07T04:09:33.333Z,31.30
2019-05-07T04:12:03.871Z,31.30
2019-05-07T04:14:34.098Z,31.50
2019-05-07T04:17:14.489Z,31.30
2019-05-07T04:19:33.110Z,31.40
2019-05-07T04:22:00.245Z,31.30
2019-05-07T04:24:27.375Z,31.30
2019-05-07T04:26:54.512Z,31.30
2019-05-07T04:29:23.073Z,31.30
2019-05-07T04:31:53.055Z,31.40
2019-05-07T04:34:19.181Z,31.40
2019-05-07T04:36:46.321Z,31.30
2019-05-07T04:39:14.207Z,31.30
2019-05-07T04:41:43.488Z,31.40
2019-05-07T04:44:10.090Z,31.30
2019-05-07T04:46:37.195Z,31.40
2019-05-07T04:49:07.260Z,31.30
2019-05-07T04:51:33.727Z,31.50
2019-05-07T04:54:03.797Z,31.50
2019-05-07T04:56:37.012Z,31.30
2019-05-07T04:59:04.222Z,31.40
2019-05-07T05:01:32.912Z,31.40
2019-05-07T05:04:17.524Z,31.40
2019-05-07T05:06:29.337Z,31.30
2019-05-07T05:09:03.028Z,31.40
2019-05-07T05:11:39.110Z,31.30
2019-05-07T05:14:08.566Z,32.00
2019-05-07T05:16:38.001Z,31.40
2019-05-07T05:19:03.819Z,31.30
2019-05-07T05:21:32.401Z,31.50
2019-05-07T05:24:04.302Z,31.50
2019-05-07T05:26:32.459Z,31.60
2019-05-07T05:29:02.961Z,31.80
2019-05-07T05:31:30.147Z,31.60
2019-05-07T05:33:57.342Z,31.40
2019-05-07T05:36:24.433Z,31.30
2019-05-07T05:38:53.265Z,31.50
2019-05-07T05:41:22.493Z,31.90
2019-05-07T05:43:49.205Z,32.00
2019-05-07T05:46:19.423Z,32.10
2019-05-07T05:48:46.718Z,31.60
2019-05-07T05:51:13.801Z,32.20
2019-05-07T05:53:45.136Z,31.60
2019-05-07T05:56:12.032Z,31.50
2019-05-07T05:58:39.246Z,31.60
2019-05-07T06:01:13.079Z,31.70
2019-05-07T06:03:47.446Z,32.50
2019-05-07T06:06:17.179Z,32.00
2019-05-07T06:08:44.254Z,31.80
2019-05-07T06:11:13.092Z,31.80
2019-05-07T06:13:46.247Z,31.80
2019-05-07T06:16:16.904Z,31.80
2019-05-07T06:18:44.220Z,31.80
2019-05-07T06:21:12.585Z,31.90
2019-05-07T06:23:48.313Z,31.90
2019-05-07T06:26:44.819Z,31.90
2019-05-07T06:29:11.990Z,32.00
2019-05-07T06:31:54.635Z,31.80
2019-05-07T06:34:23.384Z,31.80
2019-05-07T06:36:52.823Z,31.80
2019-05-07T06:39:22.020Z,31.80
2019-05-07T06:41:48.644Z,31.80
2019-05-07T06:44:15.827Z,31.80
2019-05-07T06:46:43.220Z,32.50
2019-05-07T06:49:13.042Z,31.80
2019-05-07T06:51:41.970Z,31.80
2019-05-07T06:54:12.971Z,31.90
2019-05-07T06:56:42.108Z,31.80
2019-05-07T06:59:13.001Z,31.80
2019-05-07T07:01:42.335Z,31.80
2019-05-07T07:04:12.957Z,31.80
2019-05-07T07:06:40.025Z,32.10
2019-05-07T07:09:07.254Z,31.80
2019-05-07T07:11:39.079Z,31.80
2019-05-07T07:14:17.629Z,31.80
2019-05-07T07:16:54.040Z,31.90
2019-05-07T07:19:23.356Z,31.80
2019-05-07T07:21:52.845Z,31.80
2019-05-07T07:24:22.312Z,31.90
2019-05-07T07:26:52.826Z,31.90
2019-05-07T07:29:21.971Z,31.90
2019-05-07T07:31:52.795Z,31.90
2019-05-07T07:34:22.555Z,32.10
2019-05-07T07:37:03.092Z,32.00
2019-05-07T07:39:34.687Z,32.00
2019-05-07T07:41:58.116Z,32.20
2019-05-07T07:44:29.977Z,32.40
2019-05-07T07:46:59.051Z,32.20
2019-05-07T07:52:14.192Z,32.80
2019-05-07T07:54:59.264Z,32.80
2019-05-07T07:57:26.415Z,32.80
2019-05-07T08:00:03.036Z,32.80
2019-05-07T08:02:32.076Z,32.90
2019-05-07T08:04:58.986Z,32.90
2019-05-07T08:07:29.733Z,32.90
2019-05-07T08:09:58.589Z,32.90
2019-05-07T08:12:48.968Z,32.90
2019-05-07T08:15:16.899Z,32.80
2019-05-07T08:17:37.738Z,32.80
2019-05-07T08:20:05.118Z,32.90
2019-05-07T08:22:42.330Z,32.80
2019-05-07T08:25:09.713Z,32.80
2019-05-07T08:27:36.893Z,32.70
2019-05-07T08:30:03.983Z,33.50
2019-05-07T08:32:32.691Z,32.70
2019-05-07T08:35:02.231Z,33.30
2019-05-07T08:37:28.884Z,32.60
2019-05-07T08:39:56.086Z,32.50
2019-05-07T08:42:23.284Z,32.60
2019-05-07T08:44:53.482Z,32.90
2019-05-07T08:47:22.685Z,32.50
2019-05-07T08:49:49.490Z,32.50
2019-05-07T08:52:16.578Z,32.50
2019-05-07T08:54:58.559Z,32.60
2019-05-07T08:57:18.490Z,33.30
2019-05-07T08:59:57.476Z,33.20
2019-05-07T09:02:14.626Z,32.60
2019-05-07T09:04:41.914Z,32.60
2019-05-07T09:07:09.407Z,32.60
2019-05-07T09:09:42.584Z,32.60
2019-05-07T09:12:08.389Z,32.40
2019-05-07T09:14:38.314Z,32.90
2019-05-07T09:17:05.459Z,32.60
2019-05-07T09:19:46.935Z,32.80
2019-05-07T09:22:02.170Z,32.90
2019-05-07T09:24:29.737Z,32.90
2019-05-07T09:26:56.822Z,32.70
2019-05-07T09:29:23.942Z,32.90
2019-05-07T09:31:52.530Z,32.80
2019-05-07T09:34:22.147Z,32.70
2019-05-07T09:36:48.755Z,32.70
2019-05-07T09:39:16.108Z,32.80
2019-05-07T09:41:43.521Z,32.80
2019-05-07T09:44:11.970Z,32.80
2019-05-07T09:46:39.279Z,32.80
2019-05-07T09:49:06.434Z,32.80
2019-05-07T09:51:33.727Z,32.80
2019-05-07T09:54:02.501Z,32.80
2019-05-07T09:56:32.021Z,32.80
2019-05-07T09:58:58.827Z,32.80
2019-05-07T10:01:25.911Z,32.80
2019-05-07T10:03:55.226Z,32.80
2019-05-07T10:06:22.946Z,32.80
2019-05-07T10:09:02.891Z,32.80
2019-05-07T10:11:42.559Z,32.70
2019-05-07T10:14:12.332Z,32.70
2019-05-07T10:16:39.226Z,32.90
2019-05-07T10:19:11.234Z,32.80
2019-05-07T10:21:36.937Z,32.80
2019-05-07T10:24:04.363Z,32.70
2019-05-07T10:26:42.726Z,32.70
2019-05-07T10:29:09.600Z,32.60
2019-05-07T10:31:36.749Z,32.50
2019-05-07T10:34:04.005Z,32.60
2019-05-07T10:36:32.016Z,32.70
2019-05-07T10:39:12.965Z,32.60
2019-05-07T10:41:42.345Z,32.60
2019-05-07T10:44:09.275Z,32.40
2019-05-07T10:46:36.512Z,32.70
2019-05-07T10:49:03.983Z,32.40
2019-05-07T10:51:32.219Z,32.50
2019-05-07T10:53:59.679Z,32.30
2019-05-07T10:56:28.930Z,32.60
2019-05-07T10:59:02.772Z,32.50
2019-05-07T11:01:33.403Z,32.30
2019-05-07T11:04:02.222Z,32.90
2019-05-07T11:06:29.719Z,32.10
2019-05-07T11:08:57.036Z,32.10
2019-05-07T11:11:24.101Z,32.10
2019-05-07T11:13:55.777Z,32.20
2019-05-07T11:16:27.761Z,32.10
2019-05-07T11:18:54.923Z,32.20
2019-05-07T11:21:28.140Z,32.10
2019-05-07T11:24:06.108Z,32.20
2019-05-07T11:26:35.185Z,32.10
2019-05-07T11:29:08.742Z,32.10
2019-05-07T11:31:37.255Z,32.10
2019-05-07T11:34:04.426Z,32.10
2019-05-07T11:36:34.763Z,32.20
2019-05-07T11:39:05.289Z,32.20
2019-05-07T11:41:33.861Z,32.30
2019-05-07T11:44:02.815Z,32.40
2019-05-07T11:46:33.267Z,32.40
2019-05-07T11:49:00.427Z,32.40
2019-05-07T11:51:27.598Z,32.40
2019-05-07T11:54:02.031Z,32.50
2019-05-07T11:56:29.176Z,32.50
2019-05-07T11:59:02.631Z,32.50
2019-05-07T12:01:41.585Z,32.60
2019-05-07T12:06:53.259Z,32.80
2019-05-07T12:09:22.177Z,32.70
2019-05-07T12:14:41.462Z,33.00
2019-05-07T12:17:09.143Z,33.20
2019-05-07T12:19:36.598Z,33.10
2019-05-07T12:22:14.127Z,33.10
2019-05-07T12:24:41.905Z,33.10
2019-05-07T12:27:09.315Z,33.60
2019-05-07T12:29:36.768Z,33.60
2019-05-07T12:32:22.070Z,33.50
2019-05-07T12:34:42.367Z,33.70
2019-05-07T12:37:12.563Z,33.50
2019-05-07T12:39:42.186Z,33.40
2019-05-07T12:42:08.744Z,33.40
2019-05-07T12:44:46.344Z,33.40
2019-05-07T12:47:18.524Z,33.30
2019-05-07T12:49:45.561Z,33.20
2019-05-07T12:52:12.754Z,32.70
2019-05-07T12:54:42.807Z,32.60
2019-05-07T12:57:11.815Z,32.60
2019-05-07T12:59:38.817Z,32.80
2019-05-07T13:02:17.962Z,33.00
2019-05-07T13:04:41.631Z,32.80
2019-05-07T13:07:15.088Z,32.70
2019-05-07T13:09:42.739Z,32.60
2019-05-07T13:12:16.682Z,32.60
2019-05-07T13:14:40.590Z,32.70
2019-05-07T13:17:07.906Z,32.70
2019-05-07T13:19:37.455Z,32.60
2019-05-07T13:22:14.495Z,33.20
2019-05-07T13:24:42.512Z,32.50
2019-05-07T13:27:11.662Z,32.50
2019-05-07T13:29:38.796Z,32.50
2019-05-07T13:32:06.188Z,32.50
2019-05-07T13:34:34.142Z,33.00
2019-05-07T13:37:02.630Z,33.10
2019-05-07T13:39:30.000Z,32.90
2019-05-07T13:41:58.804Z,32.70
2019-05-07T13:44:31.951Z,32.60
2019-05-07T13:46:59.321Z,32.50
2019-05-07T13:49:26.404Z,32.60
2019-05-07T13:52:03.162Z,32.50
2019-05-07T13:57:19.655Z,32.40
2019-05-07T13:59:46.834Z,32.60
2019-05-07T14:02:19.835Z,32.40
2019-05-07T14:04:49.676Z,32.30
2019-05-07T14:07:16.898Z,33.00
2019-05-07T14:09:46.362Z,32.60
2019-05-07T14:12:15.471Z,32.60
2019-05-07T14:14:44.347Z,32.40
2019-05-07T14:17:14.413Z,32.60
2019-05-07T14:19:42.268Z,32.50
2019-05-07T14:22:18.671Z,33.20
2019-05-07T14:24:52.991Z,32.40
2019-05-07T14:27:20.440Z,32.50
2019-05-07T14:29:47.541Z,32.40
2019-05-07T14:32:17.045Z,32.50
2019-05-07T14:34:45.605Z,32.70
2019-05-07T14:37:14.401Z,32.60
2019-05-07T14:39:47.319Z,32.50
2019-05-07T14:42:18.127Z,32.50
2019-05-07T14:44:46.921Z,32.60
2019-05-07T14:47:14.436Z,32.60
2019-05-07T14:49:44.170Z,32.60
2019-05-07T14:52:12.435Z,32.50
2019-05-07T14:54:42.773Z,32.60
2019-05-07T14:57:08.373Z,32.50
2019-05-07T14:59:35.630Z,32.60
2019-05-07T15:02:02.904Z,32.60
2019-05-07T15:04:31.975Z,32.60
2019-05-07T15:06:59.142Z,32.60
2019-05-07T15:09:26.293Z,32.60
2019-05-07T15:11:53.526Z,32.50
2019-05-07T15:14:20.685Z,32.50
2019-05-07T15:16:49.070Z,32.50
2019-05-07T15:19:16.369Z,32.50
2019-05-07T15:21:45.017Z,32.70
2019-05-07T15:24:12.673Z,32.70
2019-05-07T15:26:44.118Z,32.60
2019-05-07T15:29:13.911Z,32.70
2019-05-07T15:31:43.952Z,32.60
2019-05-07T15:34:12.924Z,32.60
2019-05-07T15:36:42.208Z,32.60
2019-05-07T15:39:10.694Z,32.60
2019-05-07T15:41:37.953Z,32.60
2019-05-07T15:44:05.026Z,32.70
2019-05-07T15:46:34.171Z,32.60
2019-05-07T15:49:01.850Z,32.50
2019-05-07T15:51:29.147Z,32.70
2019-05-07T15:53:56.337Z,32.60
2019-05-07T15:56:23.415Z,32.60
2019-05-07T16:01:30.602Z,32.70
2019-05-07T16:03:57.814Z,32.70
2019-05-07T16:06:24.902Z,32.70
2019-05-07T16:08:52.385Z,32.50
2019-05-07T16:11:25.992Z,32.60
2019-05-07T16:13:52.461Z,32.60
2019-05-07T16:16:23.564Z,32.50
2019-05-07T16:18:53.540Z,32.70
2019-05-07T16:21:22.587Z,32.60
2019-05-07T16:23:49.510Z,32.60
2019-05-07T16:26:16.657Z,32.50
2019-05-07T16:28:43.739Z,32.60
2019-05-07T16:31:11.001Z,32.70
2019-05-07T16:33:38.084Z,33.00
2019-05-07T16:36:05.178Z,34.70
2019-05-07T16:38:32.694Z,35.30
2019-05-07T16:41:00.202Z,35.70
2019-05-07T16:43:27.314Z,36.40
2019-05-07T16:45:54.454Z,36.00
2019-05-07T16:48:23.276Z,36.70
2019-05-07T16:50:52.280Z,37.20
2019-05-07T16:53:27.459Z,37.30
2019-05-07T16:55:48.035Z,37.50
2019-05-07T16:58:15.163Z,37.30
2019-05-07T17:00:42.396Z,37.60
2019-05-07T17:03:11.617Z,37.60
2019-05-07T17:05:38.476Z,37.60
2019-05-07T17:08:05.703Z,37.60
2019-05-07T17:10:32.880Z,37.40
2019-05-07T17:13:00.074Z,37.40
2019-05-07T17:15:27.127Z,37.40
2019-05-07T17:17:54.259Z,37.40
2019-05-07T17:20:21.968Z,37.40
2019-05-07T17:22:49.260Z,37.50
2019-05-07T17:25:16.385Z,37.40
2019-05-07T17:27:43.819Z,37.40
2019-05-07T17:30:11.766Z,37.30
2019-05-07T17:32:39.114Z,37.30
2019-05-07T17:35:06.233Z,37.00
2019-05-07T17:37:33.375Z,36.80
2019-05-07T17:40:03.146Z,37.70
2019-05-07T17:42:32.719Z,36.70
2019-05-07T17:44:59.238Z,37.30
2019-05-07T17:47:26.391Z,36.70
2019-05-07T17:49:53.453Z,36.40
2019-05-07T17:52:22.607Z,36.00
2019-05-07T17:54:49.491Z,36.30
2019-05-07T17:57:16.579Z,36.40
2019-05-07T17:59:43.716Z,36.20
2019-05-07T18:02:11.155Z,36.00
2019-05-07T18:04:48.457Z,36.60
2019-05-07T18:07:07.130Z,37.10
2019-05-07T18:09:34.299Z,37.50
2019-05-07T18:12:04.730Z,37.50
2019-05-07T18:14:32.257Z,37.30
2019-05-07T18:17:02.093Z,37.30
2019-05-07T18:19:29.658Z,37.00
2019-05-07T18:21:56.743Z,36.80
2019-05-07T18:24:23.851Z,36.30
2019-05-07T18:26:54.024Z,36.70
2019-05-07T18:29:27.006Z,36.80
2019-05-07T18:31:54.110Z,37.00
2019-05-07T18:34:21.222Z,36.70
2019-05-07T18:39:43.770Z,36.60
2019-05-07T18:42:12.711Z,36.90
2019-05-07T18:44:41.600Z,37.00
2019-05-07T18:47:09.080Z,36.70
2019-05-07T18:49:36.301Z,36.90
2019-05-07T18:52:03.405Z,36.90
2019-05-07T18:54:31.440Z,36.60
2019-05-07T18:56:58.966Z,35.70
2019-05-07T18:59:26.120Z,35.60
2019-05-07T19:01:53.228Z,36.40
2019-05-07T19:04:21.908Z,36.50
2019-05-07T19:06:51.710Z,36.10
2019-05-07T19:09:17.996Z,36.90
2019-05-07T19:11:45.153Z,36.60
2019-05-07T19:14:13.379Z,36.40
2019-05-07T19:16:43.018Z,36.60
2019-05-07T19:19:09.750Z,36.60
2019-05-07T19:21:37.077Z,36.40
2019-05-07T19:24:04.199Z,36.50
2019-05-07T19:26:31.341Z,36.50
2019-05-07T19:28:58.573Z,36.30
2019-05-07T19:31:25.725Z,36.10
2019-05-07T19:33:52.827Z,36.20
2019-05-07T19:36:22.223Z,36.00
2019-05-07T19:38:49.018Z,35.70
2019-05-07T19:41:16.137Z,35.80
2019-05-07T19:43:45.087Z,35.70
2019-05-07T19:46:13.898Z,35.50
2019-05-07T19:48:46.747Z,35.30
2019-05-07T19:51:13.909Z,35.30
2019-05-07T19:53:41.930Z,35.20
2019-05-07T19:56:09.417Z,35.40
2019-05-07T19:58:36.536Z,35.20
2019-05-07T20:01:03.651Z,35.20
2019-05-07T20:03:31.125Z,35.10
2019-05-07T20:05:58.369Z,35.10
2019-05-07T20:08:27.386Z,35.10
2019-05-07T20:10:57.005Z,35.00
2019-05-07T20:13:23.364Z,34.70
2019-05-07T20:15:52.075Z,34.70
2019-05-07T20:18:19.360Z,34.70
2019-05-07T20:20:46.439Z,34.70
2019-05-07T20:23:13.507Z,34.70
2019-05-07T20:25:42.025Z,34.80
2019-05-07T20:28:09.324Z,34.70
2019-05-07T20:30:36.409Z,34.50
2019-05-07T20:33:03.509Z,34.80
2019-05-07T20:35:32.543Z,34.80
2019-05-07T20:37:59.557Z,34.70
2019-05-07T20:40:27.127Z,34.80
2019-05-07T20:42:54.236Z,34.70
2019-05-07T20:45:21.328Z,34.80
2019-05-07T20:47:48.412Z,34.80
2019-05-07T20:50:15.579Z,34.80
2019-05-07T20:52:42.756Z,35.40
2019-05-07T20:55:09.807Z,34.80
2019-05-07T20:57:36.904Z,34.70
2019-05-07T21:00:03.992Z,34.60
2019-05-07T21:02:44.509Z,34.70
2019-05-07T21:05:00.198Z,34.60
2019-05-07T21:07:27.338Z,34.60
2019-05-07T21:09:54.400Z,34.60
2019-05-07T21:12:22.481Z,34.60
2019-05-07T21:14:49.847Z,34.60
2019-05-07T21:17:17.010Z,34.50
2019-05-07T21:19:44.166Z,34.40
2019-05-07T21:22:13.048Z,34.40
2019-05-07T21:24:42.094Z,34.30
2019-05-07T21:27:08.902Z,34.30
2019-05-07T21:29:35.947Z,33.80
2019-05-07T21:32:03.448Z,34.30
2019-05-07T21:34:31.773Z,34.30
2019-05-07T21:36:59.020Z,34.30
2019-05-07T21:39:26.072Z,34.20
2019-05-07T21:41:55.277Z,34.20
2019-05-07T21:44:25.167Z,34.20
2019-05-07T21:46:51.858Z,34.10
2019-05-07T21:49:19.192Z,34.20
2019-05-07T21:51:46.330Z,34.10
2019-05-07T21:54:13.422Z,34.20
2019-05-07T21:56:40.488Z,34.10
2019-05-07T21:59:07.628Z,34.00
2019-05-07T22:01:34.837Z,34.00
2019-05-07T22:04:02.069Z,34.00
2019-05-07T22:06:29.237Z,34.10
2019-05-07T22:08:56.395Z,34.00
2019-05-07T22:11:23.451Z,34.00
2019-05-07T22:13:54.807Z,33.90
2019-05-07T22:16:22.371Z,33.90
2019-05-07T22:18:49.507Z,33.80
2019-05-07T22:21:16.600Z,33.80
2019-05-07T22:23:43.668Z,33.90
2019-05-07T22:26:22.384Z,34.60
2019-05-07T22:28:42.031Z,33.90
2019-05-07T22:31:12.585Z,33.80
2019-05-07T22:33:38.971Z,33.80
2019-05-07T22:36:06.077Z,33.80
2019-05-07T22:38:33.291Z,33.80
2019-05-07T22:41:02.143Z,33.80
2019-05-07T22:43:31.701Z,33.70
2019-05-07T22:45:58.138Z,34.40
2019-05-07T22:48:25.209Z,33.70
2019-05-07T22:50:52.322Z,33.80
2019-05-07T22:53:19.414Z,33.70
2019-05-07T22:55:46.475Z,33.70
2019-05-07T22:58:14.407Z,33.70
2019-05-07T23:00:42.721Z,33.60
2019-05-07T23:03:12.180Z,33.60
2019-05-07T23:05:38.844Z,33.60
2019-05-07T23:08:05.906Z,33.60
2019-05-07T23:10:33.400Z,33.60
2019-05-07T23:13:02.294Z,33.60
2019-05-07T23:15:29.653Z,33.50
2019-05-07T23:17:58.408Z,33.50
2019-05-07T23:20:25.497Z,33.50
2019-05-07T23:22:52.569Z,33.50
2019-05-07T23:25:19.671Z,33.50
2019-05-07T23:27:46.734Z,33.40
2019-05-07T23:30:13.793Z,33.50
2019-05-07T23:32:40.981Z,33.50
2019-05-07T23:35:08.061Z,34.00
2019-05-07T23:37:35.122Z,33.40
2019-05-07T23:40:03.917Z,33.40
2019-05-07T23:42:31.000Z,33.40
2019-05-07T23:44:58.059Z,33.40
2019-05-07T23:47:25.158Z,33.40
2019-05-07T23:49:52.462Z,33.30
2019-05-07T23:52:19.908Z,33.30
2019-05-07T23:54:46.963Z,33.30
2019-05-07T23:57:15.357Z,33.40
2019-05-07T23:59:42.808Z,33.40
